createdAt,value
2023-07-02T00:00:10.017Z,24.33
2023-07-02T00:02:38.254Z,24.39
2023-07-02T00:05:06.515Z,24.17
2023-07-02T00:07:35.469Z,24.17
2023-07-02T00:10:02.658Z,24.38
2023-07-02T00:12:29.664Z,23.80
2023-07-02T00:14:56.728Z,24.16
2023-07-02T00:17:23.802Z,24.26
2023-07-02T00:19:53.498Z,24.21
2023-07-02T00:22:21.835Z,24.26
2023-07-02T00:24:49.135Z,24.00
2023-07-02T00:27:16.199Z,24.04
2023-07-02T00:29:43.363Z,24.13
2023-07-02T00:32:10.372Z,24.08
2023-07-02T00:34:37.610Z,24.40
2023-07-02T00:37:04.676Z,24.41
2023-07-02T00:39:32.026Z,24.30
2023-07-02T00:42:06.338Z,24.01
2023-07-02T00:44:33.516Z,24.39
2023-07-02T00:47:01.152Z,24.39
2023-07-02T00:49:28.606Z,24.17
2023-07-02T00:51:56.187Z,24.64
2023-07-02T00:54:23.386Z,24.55
2023-07-02T00:56:51.502Z,24.50
2023-07-02T00:59:18.537Z,24.27
2023-07-02T01:01:50.872Z,24.29
2023-07-02T01:04:20.833Z,24.49
2023-07-02T01:06:48.211Z,24.53
2023-07-02T01:09:15.370Z,24.33
2023-07-02T01:11:47.738Z,23.91
2023-07-02T01:14:27.484Z,24.39
2023-07-02T01:16:56.827Z,24.35
2023-07-02T01:19:41.695Z,24.05
2023-07-02T01:22:09.259Z,24.17
2023-07-02T01:24:38.029Z,23.91
2023-07-02T01:27:05.934Z,23.73
2023-07-02T01:29:33.116Z,23.84
2023-07-02T01:32:00.245Z,24.08
2023-07-02T01:34:27.411Z,23.96
2023-07-02T01:36:54.448Z,23.87
2023-07-02T01:39:21.496Z,23.82
2023-07-02T01:42:10.485Z,24.09
2023-07-02T01:44:38.196Z,24.04
2023-07-02T01:47:06.496Z,24.19
2023-07-02T01:49:33.695Z,24.05
2023-07-02T01:52:00.762Z,24.16
2023-07-02T01:54:29.591Z,24.10
2023-07-02T01:56:57.467Z,24.22
2023-07-02T01:59:24.858Z,23.73
2023-07-02T02:01:52.333Z,24.10
2023-07-02T02:04:19.504Z,23.84
2023-07-02T02:06:46.650Z,23.89
2023-07-02T02:09:13.634Z,23.46
2023-07-02T02:11:45.694Z,23.70
2023-07-02T02:14:12.928Z,23.25
2023-07-02T02:16:40.435Z,23.73
2023-07-02T02:19:07.808Z,23.57
2023-07-02T02:21:34.914Z,23.86
2023-07-02T02:24:01.992Z,23.84
2023-07-02T02:26:28.991Z,23.80
2023-07-02T02:28:56.020Z,23.55
2023-07-02T02:31:23.076Z,23.82
2023-07-02T02:33:50.360Z,23.57
2023-07-02T02:36:18.700Z,24.11
2023-07-02T02:38:45.959Z,23.69
2023-07-02T02:41:13.784Z,23.83
2023-07-02T02:43:45.847Z,24.17
2023-07-02T02:46:22.921Z,24.03
2023-07-02T02:48:50.770Z,23.15
2023-07-02T02:51:17.839Z,23.36
2023-07-02T02:53:44.831Z,23.12
2023-07-02T02:56:11.874Z,23.61
2023-07-02T02:58:38.944Z,23.59
2023-07-02T03:01:11.579Z,23.67
2023-07-02T03:03:46.419Z,23.78
2023-07-02T03:06:17.105Z,23.76
2023-07-02T03:08:44.307Z,23.79
2023-07-02T03:11:11.539Z,24.02
2023-07-02T03:13:39.009Z,23.94
2023-07-02T03:16:06.824Z,23.82
2023-07-02T03:18:34.879Z,23.96
2023-07-02T03:21:02.445Z,23.97
2023-07-02T03:23:29.482Z,23.77
2023-07-02T03:25:56.838Z,24.18
2023-07-02T03:28:23.847Z,23.88
2023-07-02T03:30:51.114Z,23.32
2023-07-02T03:33:18.643Z,23.57
2023-07-02T03:35:45.650Z,23.76
2023-07-02T03:38:12.731Z,23.47
2023-07-02T03:40:39.710Z,23.39
2023-07-02T03:43:08.320Z,23.43
2023-07-02T03:45:35.276Z,23.63
2023-07-02T03:48:02.344Z,23.28
2023-07-02T03:50:29.393Z,23.51
2023-07-02T03:52:56.366Z,23.32
2023-07-02T03:55:23.349Z,23.34
2023-07-02T03:57:50.349Z,23.25
2023-07-02T04:00:17.722Z,23.17
2023-07-02T04:02:44.907Z,23.12
2023-07-02T04:05:12.189Z,23.43
2023-07-02T04:07:39.252Z,23.09
2023-07-02T04:10:07.186Z,23.40
2023-07-02T04:12:34.284Z,23.59
2023-07-02T04:15:01.310Z,23.33
2023-07-02T04:17:28.381Z,23.19
2023-07-02T04:19:56.705Z,22.81
2023-07-02T04:22:23.682Z,23.48
2023-07-02T04:24:51.599Z,23.64
2023-07-02T04:27:45.918Z,23.48
2023-07-02T04:30:09.503Z,23.62
2023-07-02T04:32:37.400Z,23.18
2023-07-02T04:35:04.767Z,23.16
2023-07-02T04:37:31.737Z,23.04
2023-07-02T04:39:58.801Z,22.96
2023-07-02T04:42:35.992Z,23.19
2023-07-02T04:45:03.131Z,23.16
2023-07-02T04:47:31.285Z,23.07
2023-07-02T04:49:58.952Z,23.02
2023-07-02T04:52:26.229Z,22.93
2023-07-02T04:54:53.753Z,23.15
2023-07-02T04:57:20.828Z,23.05
2023-07-02T04:59:47.891Z,23.22
2023-07-02T05:02:14.886Z,23.02
2023-07-02T05:04:41.961Z,23.17
2023-07-02T05:07:09.233Z,22.59
2023-07-02T05:09:36.235Z,22.52
2023-07-02T05:12:03.354Z,22.90
2023-07-02T05:14:30.422Z,22.58
2023-07-02T05:16:57.509Z,22.14
2023-07-02T05:19:24.594Z,22.48
2023-07-02T05:21:51.575Z,21.96
2023-07-02T05:24:18.629Z,22.70
2023-07-02T05:26:45.649Z,22.28
2023-07-02T05:29:13.279Z,22.69
2023-07-02T05:31:40.407Z,22.71
2023-07-02T05:34:07.516Z,22.98
2023-07-02T05:36:35.678Z,23.34
2023-07-02T05:39:02.663Z,22.47
2023-07-02T05:41:31.640Z,22.21
2023-07-02T05:43:59.448Z,22.23
2023-07-02T05:46:26.731Z,22.88
2023-07-02T05:48:57.127Z,22.30
2023-07-02T05:51:25.159Z,22.28
2023-07-02T05:53:53.081Z,22.41
2023-07-02T05:56:20.322Z,22.32
2023-07-02T05:58:48.972Z,22.48
2023-07-02T06:01:16.243Z,22.51
2023-07-02T06:03:45.278Z,22.56
2023-07-02T06:06:13.055Z,22.96
2023-07-02T06:08:40.052Z,22.35
2023-07-02T06:11:07.144Z,23.10
2023-07-02T06:13:34.440Z,23.43
2023-07-02T06:16:01.516Z,22.72
2023-07-02T06:18:28.611Z,23.23
2023-07-02T06:20:55.759Z,22.81
2023-07-02T06:23:23.115Z,23.03
2023-07-02T06:25:52.843Z,22.70
2023-07-02T06:28:20.161Z,23.51
2023-07-02T06:30:47.588Z,22.93
2023-07-02T06:33:14.801Z,23.00
2023-07-02T06:35:41.792Z,22.95
2023-07-02T06:38:08.785Z,22.47
2023-07-02T06:40:36.174Z,23.52
2023-07-02T06:43:03.262Z,22.27
2023-07-02T06:45:30.274Z,23.16
2023-07-02T06:47:57.327Z,23.23
2023-07-02T06:50:24.869Z,23.87
2023-07-02T06:52:51.813Z,23.17
2023-07-02T06:55:18.813Z,22.84
2023-07-02T06:57:47.361Z,23.26
2023-07-02T07:00:15.494Z,22.50
2023-07-02T07:02:42.970Z,23.07
2023-07-02T07:05:10.811Z,23.19
2023-07-02T07:07:38.423Z,23.67
2023-07-02T07:10:06.493Z,23.33
2023-07-02T07:12:33.571Z,23.19
2023-07-02T07:15:00.725Z,23.96
2023-07-02T07:17:27.896Z,24.10
2023-07-02T07:19:54.925Z,23.91
2023-07-02T07:22:21.910Z,23.81
2023-07-02T07:24:50.056Z,23.40
2023-07-02T07:27:17.129Z,23.59
2023-07-02T07:29:44.135Z,22.90
2023-07-02T07:32:11.207Z,23.62
2023-07-02T07:34:38.174Z,22.81
2023-07-02T07:37:06.007Z,23.36
2023-07-02T07:39:33.109Z,23.91
2023-07-02T07:42:00.115Z,23.67
2023-07-02T07:44:30.328Z,22.75
2023-07-02T07:46:57.473Z,23.34
2023-07-02T07:49:25.802Z,23.19
2023-07-02T07:51:53.355Z,23.30
2023-07-02T07:54:20.476Z,23.62
2023-07-02T07:56:47.665Z,23.74
2023-07-02T07:59:15.866Z,23.48
2023-07-02T08:01:43.080Z,23.76
2023-07-02T08:04:10.350Z,24.04
2023-07-02T08:06:37.443Z,23.99
2023-07-02T08:09:04.785Z,23.37
2023-07-02T08:11:31.774Z,24.39
2023-07-02T08:13:59.089Z,23.54
2023-07-02T08:16:26.146Z,23.89
2023-07-02T08:18:53.176Z,24.04
2023-07-02T08:21:20.339Z,24.02
2023-07-02T08:23:47.352Z,23.90
2023-07-02T08:26:15.366Z,23.44
2023-07-02T08:28:42.497Z,23.82
2023-07-02T08:31:09.881Z,24.04
2023-07-02T08:33:36.921Z,24.15
2023-07-02T08:36:04.103Z,24.57
2023-07-02T08:38:31.121Z,24.20
2023-07-02T08:40:58.291Z,24.02
2023-07-02T08:43:28.423Z,24.60
2023-07-02T08:45:55.708Z,24.19
2023-07-02T08:48:25.348Z,24.83
2023-07-02T08:50:52.435Z,24.71
2023-07-02T08:53:20.567Z,24.73
2023-07-02T08:55:47.513Z,23.91
2023-07-02T08:58:15.933Z,24.64
2023-07-02T09:01:10.040Z,24.00
2023-07-02T09:03:38.451Z,24.83
2023-07-02T09:06:10.717Z,25.00
2023-07-02T09:08:39.539Z,24.81
2023-07-02T09:11:18.821Z,24.33
2023-07-02T09:14:00.060Z,24.42
2023-07-02T09:16:37.547Z,24.06
2023-07-02T09:19:09.796Z,24.98
2023-07-02T09:21:48.365Z,25.86
2023-07-02T09:24:25.661Z,25.04
2023-07-02T09:26:55.762Z,24.84
2023-07-02T09:29:25.503Z,24.90
2023-07-02T09:32:08.769Z,24.94
2023-07-02T09:34:39.109Z,24.24
2023-07-02T09:37:06.932Z,24.63
2023-07-02T09:39:36.977Z,25.56
2023-07-02T09:42:09.297Z,25.86
2023-07-02T09:44:37.184Z,24.80
2023-07-02T09:47:09.696Z,25.21
2023-07-02T09:49:43.470Z,24.91
2023-07-02T09:52:12.960Z,25.30
2023-07-02T09:54:40.074Z,25.42
2023-07-02T09:57:08.292Z,25.47
2023-07-02T09:59:36.045Z,26.06
2023-07-02T10:02:03.387Z,26.10
2023-07-02T10:04:45.641Z,25.89
2023-07-02T10:07:14.088Z,25.66
2023-07-02T10:09:44.694Z,25.92
2023-07-02T10:12:33.990Z,25.88
2023-07-02T10:15:01.300Z,25.65
2023-07-02T10:17:35.824Z,25.48
2023-07-02T10:20:08.800Z,26.37
2023-07-02T10:22:49.008Z,26.17
2023-07-02T10:25:38.730Z,26.19
2023-07-02T10:28:21.231Z,25.74
2023-07-02T10:30:48.560Z,26.03
2023-07-02T10:33:18.066Z,26.30
2023-07-02T10:35:51.128Z,25.09
2023-07-02T10:38:24.840Z,26.09
2023-07-02T10:41:04.267Z,27.07
2023-07-02T10:43:33.574Z,26.37
2023-07-02T10:46:02.593Z,26.94
2023-07-02T10:48:30.879Z,26.66
2023-07-02T10:50:58.242Z,26.53
2023-07-02T10:53:25.334Z,26.09
2023-07-02T10:56:00.385Z,27.23
2023-07-02T10:58:28.061Z,26.73
2023-07-02T11:00:55.301Z,27.58
2023-07-02T11:03:25.147Z,27.12
2023-07-02T11:05:53.677Z,26.93
2023-07-02T11:08:22.521Z,27.65
2023-07-02T11:11:07.779Z,27.37
2023-07-02T11:13:34.990Z,26.97
2023-07-02T11:16:02.309Z,29.03
2023-07-02T11:18:33.152Z,27.93
2023-07-02T11:21:11.641Z,27.84
2023-07-02T11:23:38.621Z,27.24
2023-07-02T11:26:05.637Z,27.03
2023-07-02T11:28:38.815Z,26.99
2023-07-02T11:31:08.634Z,26.80
2023-07-02T11:33:43.879Z,27.10
2023-07-02T11:37:10.185Z,27.92
2023-07-02T11:41:03.253Z,30.23
2023-07-02T11:58:09.618Z,29.36
2023-07-02T12:06:25.743Z,29.82
2023-07-02T12:09:12.735Z,29.07
2023-07-02T12:11:59.965Z,29.21
2023-07-02T12:14:27.403Z,28.19
2023-07-02T12:16:54.808Z,27.99
2023-07-02T12:19:26.610Z,28.80
2023-07-02T12:22:23.373Z,29.86
2023-07-02T12:25:42.492Z,30.24
2023-07-02T12:28:13.757Z,28.84
2023-07-02T12:30:42.607Z,27.99
2023-07-02T12:33:12.680Z,28.01
2023-07-02T12:36:20.396Z,28.59
2023-07-02T12:38:51.522Z,28.67
2023-07-02T12:41:19.104Z,28.74
2023-07-02T12:43:55.331Z,28.92
2023-07-02T12:46:23.319Z,30.55
2023-07-02T12:48:53.166Z,30.41
2023-07-02T12:51:40.923Z,29.76
2023-07-02T12:54:29.228Z,30.23
2023-07-02T12:56:58.886Z,29.85
2023-07-02T12:59:28.440Z,30.48
2023-07-02T13:02:00.377Z,30.33
2023-07-02T13:04:35.101Z,30.41
2023-07-02T13:07:07.019Z,30.42
2023-07-02T13:09:39.307Z,29.92
2023-07-02T13:12:23.287Z,30.80
2023-07-02T13:14:55.270Z,30.74
2023-07-02T13:17:27.354Z,31.41
2023-07-02T13:19:54.387Z,31.28
2023-07-02T13:22:22.748Z,30.70
2023-07-02T13:24:49.905Z,30.84
2023-07-02T13:27:18.904Z,30.81
2023-07-02T13:29:53.896Z,31.54
2023-07-02T13:32:25.914Z,31.34
2023-07-02T13:34:57.772Z,29.37
2023-07-02T13:37:35.040Z,29.81
2023-07-02T13:53:56.057Z,31.08
2023-07-02T13:59:33.711Z,31.38
2023-07-02T14:02:01.323Z,31.01
2023-07-02T14:04:28.432Z,30.64
2023-07-02T14:06:55.523Z,30.14
2023-07-02T14:09:22.604Z,29.67
2023-07-02T14:11:50.029Z,30.08
2023-07-02T14:14:17.139Z,30.08
2023-07-02T14:16:44.393Z,30.38
2023-07-02T14:19:11.579Z,28.83
2023-07-02T14:21:39.182Z,29.49
2023-07-02T14:24:06.620Z,30.13
2023-07-02T14:26:33.695Z,29.87
2023-07-02T14:29:00.679Z,30.31
2023-07-02T14:31:27.699Z,30.36
2023-07-02T14:33:54.993Z,29.93
2023-07-02T14:36:22.031Z,29.68
2023-07-02T14:38:49.144Z,29.65
2023-07-02T14:41:16.163Z,30.30
2023-07-02T14:43:43.251Z,29.40
2023-07-02T14:46:10.623Z,29.70
2023-07-02T14:48:37.766Z,29.14
2023-07-02T14:51:05.778Z,30.23
2023-07-02T14:53:35.069Z,29.90
2023-07-02T14:56:03.671Z,29.91
2023-07-02T14:58:32.035Z,30.04
2023-07-02T15:01:00.204Z,29.64
2023-07-02T15:03:29.920Z,29.53
2023-07-02T15:06:11.996Z,30.30
2023-07-02T15:08:39.645Z,29.75
2023-07-02T15:11:07.183Z,29.58
2023-07-02T15:13:34.468Z,29.71
2023-07-02T15:16:01.783Z,29.57
2023-07-02T15:18:29.038Z,30.29
2023-07-02T15:20:57.430Z,30.09
2023-07-02T15:23:26.467Z,29.78
2023-07-02T15:25:59.462Z,30.38
2023-07-02T15:28:28.034Z,30.76
2023-07-02T15:31:09.629Z,30.77
2023-07-02T15:33:36.867Z,30.52
2023-07-02T15:36:08.220Z,30.82
2023-07-02T15:38:35.262Z,30.11
2023-07-02T15:41:21.552Z,30.56
2023-07-02T15:43:49.046Z,30.21
2023-07-02T15:46:18.299Z,30.55
2023-07-02T15:48:45.774Z,30.25
2023-07-02T15:51:13.417Z,29.79
2023-07-02T15:53:43.219Z,29.89
2023-07-02T15:56:10.442Z,29.74
2023-07-02T15:58:37.539Z,28.78
2023-07-02T16:01:19.829Z,29.11
2023-07-02T16:03:47.005Z,29.85
2023-07-02T16:06:15.385Z,30.00
2023-07-02T16:08:43.990Z,30.21
2023-07-02T16:11:13.005Z,30.33
2023-07-02T16:13:42.613Z,30.39
2023-07-02T16:16:10.285Z,29.99
2023-07-02T16:18:37.335Z,29.46
2023-07-02T16:21:06.202Z,30.26
2023-07-02T16:23:34.131Z,30.29
2023-07-02T16:26:06.774Z,29.99
2023-07-02T16:28:36.655Z,29.57
2023-07-02T16:31:03.827Z,28.78
2023-07-02T16:33:34.465Z,29.21
2023-07-02T16:36:09.411Z,29.50
2023-07-02T16:38:37.420Z,29.38
2023-07-02T16:41:07.054Z,29.66
2023-07-02T16:43:35.206Z,29.92
2023-07-02T16:46:02.300Z,28.85
2023-07-02T16:48:29.333Z,29.67
2023-07-02T16:51:06.817Z,30.24
2023-07-02T16:53:35.098Z,29.80
2023-07-02T16:56:05.182Z,29.40
2023-07-02T16:58:33.527Z,29.87
2023-07-02T17:01:08.857Z,30.31
2023-07-02T17:03:36.617Z,29.98
2023-07-02T17:06:06.824Z,29.82
2023-07-02T17:08:43.934Z,29.74
2023-07-02T17:11:12.849Z,29.31
2023-07-02T17:13:40.137Z,29.49
2023-07-02T17:16:08.037Z,28.71
2023-07-02T17:18:35.696Z,29.29
2023-07-02T17:21:03.207Z,29.53
2023-07-02T17:27:33.209Z,29.75
2023-07-02T17:30:05.547Z,28.34
2023-07-02T17:32:32.957Z,29.51
2023-07-02T17:35:00.083Z,29.65
2023-07-02T17:37:27.362Z,29.48
2023-07-02T17:39:55.287Z,29.01
2023-07-02T17:42:22.619Z,28.87
2023-07-02T17:44:50.372Z,29.13
2023-07-02T17:47:19.051Z,29.50
2023-07-02T17:49:49.456Z,29.53
2023-07-02T17:52:21.821Z,29.40
2023-07-02T17:54:52.018Z,29.45
2023-07-02T17:57:19.953Z,29.23
2023-07-02T17:59:49.003Z,29.26
2023-07-02T18:02:18.102Z,29.39
2023-07-02T18:04:46.459Z,29.80
2023-07-02T18:07:21.662Z,29.62
2023-07-02T18:09:51.840Z,29.77
2023-07-02T18:12:24.269Z,30.11
2023-07-02T18:14:52.433Z,29.92
2023-07-02T18:17:19.984Z,29.21
2023-07-02T18:19:47.573Z,28.58
2023-07-02T18:22:14.938Z,28.91
2023-07-02T18:24:42.764Z,28.24
2023-07-02T18:27:11.105Z,28.78
2023-07-02T18:29:39.140Z,28.73
2023-07-02T18:32:08.206Z,29.03
2023-07-02T18:34:39.205Z,28.98
2023-07-02T18:37:08.132Z,28.79
2023-07-02T18:39:35.693Z,29.17
2023-07-02T18:42:06.631Z,29.29
2023-07-02T18:44:36.986Z,29.16
2023-07-02T18:47:10.779Z,28.27
2023-07-02T18:49:38.856Z,28.86
2023-07-02T18:52:14.866Z,28.87
2023-07-02T18:54:42.845Z,28.59
2023-07-02T18:57:12.271Z,29.01
2023-07-02T18:59:48.421Z,28.21
2023-07-02T19:02:17.471Z,28.02
2023-07-02T19:04:53.334Z,28.27
2023-07-02T19:07:22.474Z,28.22
2023-07-02T19:09:49.844Z,28.17
2023-07-02T19:12:17.052Z,28.07
2023-07-02T19:14:44.430Z,28.55
2023-07-02T19:17:13.107Z,28.24
2023-07-02T19:19:42.461Z,27.59
2023-07-02T19:22:17.188Z,27.76
2023-07-02T19:24:44.740Z,27.93
2023-07-02T19:27:15.509Z,28.18
2023-07-02T19:29:43.423Z,27.96
2023-07-02T19:32:10.644Z,28.35
2023-07-02T19:34:37.776Z,28.06
2023-07-02T19:37:07.361Z,28.08
2023-07-02T19:39:35.178Z,27.92
2023-07-02T19:42:02.513Z,27.52
2023-07-02T19:44:29.637Z,27.89
2023-07-02T19:46:56.808Z,28.02
2023-07-02T19:49:23.830Z,27.97
2023-07-02T19:51:51.963Z,27.92
2023-07-02T19:54:19.713Z,27.94
2023-07-02T19:56:49.427Z,27.95
2023-07-02T19:59:17.259Z,27.65
2023-07-02T20:01:45.589Z,27.70
2023-07-02T20:04:24.185Z,27.65
2023-07-02T20:06:54.836Z,28.14
2023-07-02T20:09:22.538Z,28.41
2023-07-02T20:11:49.679Z,28.55
2023-07-02T20:14:17.420Z,27.45
2023-07-02T20:16:51.742Z,27.26
2023-07-02T20:19:21.166Z,27.23
2023-07-02T20:21:48.280Z,27.11
2023-07-02T20:24:15.259Z,27.06
2023-07-02T20:26:42.338Z,26.89
2023-07-02T20:29:09.465Z,27.02
2023-07-02T20:31:36.647Z,26.91
2023-07-02T20:34:05.751Z,26.87
2023-07-02T20:36:36.366Z,26.85
2023-07-02T20:39:05.223Z,26.80
2023-07-02T20:41:37.124Z,26.91
2023-07-02T20:44:05.013Z,26.73
2023-07-02T20:46:33.558Z,26.80
2023-07-02T20:49:00.968Z,26.95
2023-07-02T20:51:30.717Z,26.87
2023-07-02T20:53:57.696Z,26.84
2023-07-02T20:56:24.971Z,26.98
2023-07-02T20:58:54.718Z,26.85
2023-07-02T21:01:22.116Z,26.95
2023-07-02T21:03:49.754Z,26.86
2023-07-02T21:06:16.784Z,26.75
2023-07-02T21:08:44.105Z,26.76
2023-07-02T21:11:24.186Z,26.82
2023-07-02T21:13:58.941Z,26.32
2023-07-02T21:16:26.107Z,26.73
2023-07-02T21:18:53.290Z,26.80
2023-07-02T21:21:45.656Z,27.03
2023-07-02T21:24:14.255Z,26.88
2023-07-02T21:26:41.355Z,26.83
2023-07-02T21:29:08.888Z,26.87
2023-07-02T21:31:36.193Z,26.68
2023-07-02T21:34:03.282Z,26.69
2023-07-02T21:36:31.562Z,26.65
2023-07-02T21:39:01.445Z,26.66
2023-07-02T21:41:29.166Z,26.49
2023-07-02T21:43:56.656Z,26.48
2023-07-02T21:46:23.673Z,26.35
2023-07-02T21:48:50.742Z,26.37
2023-07-02T21:51:18.985Z,26.33
2023-07-02T21:53:46.347Z,26.31
2023-07-02T21:56:13.337Z,26.27
2023-07-02T21:58:41.006Z,26.31
2023-07-02T22:01:08.164Z,26.28
2023-07-02T22:03:35.200Z,26.22
2023-07-02T22:06:02.239Z,26.13
2023-07-02T22:08:29.545Z,26.20
2023-07-02T22:11:05.780Z,26.10
2023-07-02T22:13:36.361Z,26.12
2023-07-02T22:16:03.419Z,25.69
2023-07-02T22:18:30.507Z,26.17
2023-07-02T22:20:57.546Z,26.04
2023-07-02T22:23:24.553Z,25.65
2023-07-02T22:25:51.738Z,25.61
2023-07-02T22:28:18.940Z,25.57
2023-07-02T22:30:45.926Z,25.49
2023-07-02T22:33:12.948Z,25.51
2023-07-02T22:35:39.929Z,25.23
2023-07-02T22:38:07.000Z,25.51
2023-07-02T22:40:33.960Z,25.36
2023-07-02T22:43:01.124Z,25.68
2023-07-02T22:45:29.067Z,25.86
2023-07-02T22:47:56.080Z,25.63
2023-07-02T22:50:23.463Z,25.72
2023-07-02T22:52:51.113Z,25.97
2023-07-02T22:55:18.261Z,25.78
2023-07-02T22:57:45.461Z,25.60
2023-07-02T23:00:17.206Z,25.83
2023-07-02T23:02:47.241Z,25.73
2023-07-02T23:05:18.906Z,25.65
2023-07-02T23:07:47.101Z,25.40
2023-07-02T23:10:16.921Z,25.03
2023-07-02T23:12:47.890Z,25.43
2023-07-02T23:15:17.072Z,25.43
2023-07-02T23:17:53.691Z,25.73
2023-07-02T23:20:21.405Z,25.43
2023-07-02T23:22:51.339Z,25.51
2023-07-02T23:25:24.005Z,25.62
2023-07-02T23:27:54.417Z,25.28
2023-07-02T23:30:28.117Z,25.21
2023-07-02T23:32:55.483Z,25.27
2023-07-02T23:35:22.699Z,25.19
2023-07-02T23:37:55.779Z,25.08
2023-07-02T23:40:24.553Z,25.29
2023-07-02T23:42:52.105Z,25.07
2023-07-02T23:45:19.341Z,25.38
2023-07-02T23:47:46.736Z,25.19
2023-07-02T23:50:17.785Z,25.39
2023-07-02T23:52:48.564Z,25.54
2023-07-02T23:55:18.440Z,25.46
2023-07-02T23:57:46.036Z,25.12
